sensor_id;sensor_type;location;lat;lon;timestamp;pressure;altitude;pressure_sealevel;temperature;humidity
24558;BME280;12726;49.148;8.582;2022-12-07T00:02:11;100632.75;;;3.42;100.00
24558;BME280;12726;49.148;8.582;2022-12-07T00:04:56;100625.41;;;3.36;100.00
24558;BME280;12726;49.148;8.582;2022-12-07T00:07:41;100629.91;;;3.36;100.00
24558;BME280;12726;49.148;8.582;2022-12-07T00:10:27;100624.22;;;3.31;100.00
24558;BME280;12726;49.148;8.582;2022-12-07T00:13:12;100623.28;;;3.40;100.00
24558;BME280;12726;49.148;8.582;2022-12-07T00:16:01;100624.78;;;3.42;100.00
24558;BME280;12726;49.148;8.582;2022-12-07T00:18:47;100625.25;;;3.38;100.00
24558;BME280;12726;49.148;8.582;2022-12-07T00:21:33;100616.75;;;3.34;100.00
24558;BME280;12726;49.148;8.582;2022-12-07T00:24:19;100615.13;;;3.33;100.00
24558;BME280;12726;49.148;8.582;2022-12-07T00:27:05;100630.41;;;3.31;100.00
24558;BME280;12726;49.148;8.582;2022-12-07T00:29:50;100621.72;;;3.29;100.00
24558;BME280;12726;49.148;8.582;2022-12-07T00:32:37;100618.38;;;3.27;100.00
24558;BME280;12726;49.148;8.582;2022-12-07T00:35:22;100622.22;;;3.25;100.00
24558;BME280;12726;49.148;8.582;2022-12-07T00:38:07;100622.69;;;3.20;100.00
24558;BME280;12726;49.148;8.582;2022-12-07T00:40:56;100618.53;;;3.18;100.00
24558;BME280;12726;49.148;8.582;2022-12-07T00:43:43;100613.50;;;3.14;100.00
24558;BME280;12726;49.148;8.582;2022-12-07T00:46:29;100605.69;;;3.13;100.00
24558;BME280;12726;49.148;8.582;2022-12-07T00:49:16;100608.69;;;3.10;100.00
24558;BME280;12726;49.148;8.582;2022-12-07T00:52:01;100604.50;;;3.07;100.00
24558;BME280;12726;49.148;8.582;2022-12-07T00:54:46;100609.00;;;3.07;100.00
24558;BME280;12726;49.148;8.582;2022-12-07T00:57:32;100603.50;;;3.08;100.00
24558;BME280;12726;49.148;8.582;2022-12-07T01:00:18;100595.88;;;3.05;100.00
24558;BME280;12726;49.148;8.582;2022-12-07T01:03:03;100614.66;;;3.04;100.00
24558;BME280;12726;49.148;8.582;2022-12-07T01:05:51;100599.53;;;3.04;100.00
24558;BME280;12726;49.148;8.582;2022-12-07T01:08:36;100605.84;;;3.03;100.00
24558;BME280;12726;49.148;8.582;2022-12-07T01:11:23;100614.25;;;2.99;100.00
24558;BME280;12726;49.148;8.582;2022-12-07T01:14:08;100610.47;;;3.01;100.00
24558;BME280;12726;49.148;8.582;2022-12-07T01:16:54;100612.97;;;3.03;100.00
24558;BME280;12726;49.148;8.582;2022-12-07T01:19:39;100603.63;;;2.99;100.00
24558;BME280;12726;49.148;8.582;2022-12-07T01:22:25;100606.09;;;2.92;100.00
24558;BME280;12726;49.148;8.582;2022-12-07T01:25:11;100609.44;;;2.94;100.00
24558;BME280;12726;49.148;8.582;2022-12-07T01:27:56;100604.66;;;2.98;100.00
24558;BME280;12726;49.148;8.582;2022-12-07T01:30:41;100612.09;;;2.94;100.00
24558;BME280;12726;49.148;8.582;2022-12-07T01:33:28;100604.59;;;2.90;100.00
24558;BME280;12726;49.148;8.582;2022-12-07T01:36:15;100617.09;;;2.97;100.00
24558;BME280;12726;49.148;8.582;2022-12-07T01:39:04;100605.50;;;3.06;100.00
24558;BME280;12726;49.148;8.582;2022-12-07T01:41:49;100605.50;;;3.06;100.00
24558;BME280;12726;49.148;8.582;2022-12-07T01:47:55;100608.78;;;3.00;100.00
24558;BME280;12726;49.148;8.582;2022-12-07T01:50:42;100608.94;;;2.99;100.00
24558;BME280;12726;49.148;8.582;2022-12-07T01:53:29;100607.31;;;3.06;100.00
24558;BME280;12726;49.148;8.582;2022-12-07T01:56:20;100618.16;;;3.04;100.00
24558;BME280;12726;49.148;8.582;2022-12-07T01:59:08;100619.13;;;3.03;100.00
24558;BME280;12726;49.148;8.582;2022-12-07T02:01:54;100610.50;;;3.09;100.00
24558;BME280;12726;49.148;8.582;2022-12-07T02:04:39;100603.41;;;3.18;100.00
24558;BME280;12726;49.148;8.582;2022-12-07T02:07:27;100611.38;;;3.18;100.00
24558;BME280;12726;49.148;8.582;2022-12-07T02:10:14;100613.03;;;3.11;100.00
24558;BME280;12726;49.148;8.582;2022-12-07T02:13:03;100606.88;;;3.10;100.00
24558;BME280;12726;49.148;8.582;2022-12-07T02:15:59;100599.94;;;3.26;100.00
24558;BME280;12726;49.148;8.582;2022-12-07T02:18:58;100603.78;;;3.31;100.00
24558;BME280;12726;49.148;8.582;2022-12-07T02:21:51;100606.59;;;3.30;100.00
24558;BME280;12726;49.148;8.582;2022-12-07T02:24:47;100601.44;;;3.28;100.00
24558;BME280;12726;49.148;8.582;2022-12-07T02:27:38;100591.59;;;3.21;100.00
24558;BME280;12726;49.148;8.582;2022-12-07T02:30:28;100579.97;;;3.22;100.00
24558;BME280;12726;49.148;8.582;2022-12-07T02:33:18;100584.81;;;3.26;100.00
24558;BME280;12726;49.148;8.582;2022-12-07T02:36:08;100590.75;;;3.20;100.00
24558;BME280;12726;49.148;8.582;2022-12-07T02:39:00;100594.94;;;3.23;100.00
24558;BME280;12726;49.148;8.582;2022-12-07T02:41:48;100590.13;;;3.26;100.00
24558;BME280;12726;49.148;8.582;2022-12-07T02:44:37;100580.97;;;3.29;100.00
24558;BME280;12726;49.148;8.582;2022-12-07T02:47:24;100572.69;;;3.32;100.00
24558;BME280;12726;49.148;8.582;2022-12-07T02:50:10;100571.03;;;3.31;100.00
24558;BME280;12726;49.148;8.582;2022-12-07T02:52:56;100578.13;;;3.22;100.00
24558;BME280;12726;49.148;8.582;2022-12-07T02:55:42;100570.84;;;3.24;100.00
24558;BME280;12726;49.148;8.582;2022-12-07T02:58:34;100569.81;;;3.17;100.00
24558;BME280;12726;49.148;8.582;2022-12-07T03:01:28;100569.31;;;3.22;100.00
24558;BME280;12726;49.148;8.582;2022-12-07T03:04:29;100558.84;;;3.20;100.00
24558;BME280;12726;49.148;8.582;2022-12-07T03:07:23;100558.84;;;3.20;100.00
24558;BME280;12726;49.148;8.582;2022-12-07T03:10:16;100563.47;;;3.10;100.00
24558;BME280;12726;49.148;8.582;2022-12-07T03:13:08;100575.41;;;3.06;100.00
24558;BME280;12726;49.148;8.582;2022-12-07T03:15:58;100569.75;;;3.01;100.00
24558;BME280;12726;49.148;8.582;2022-12-07T03:18:49;100575.91;;;3.01;100.00
24558;BME280;12726;49.148;8.582;2022-12-07T03:21:39;100570.47;;;3.11;100.00
24558;BME280;12726;49.148;8.582;2022-12-07T03:24:27;100564.31;;;3.10;100.00
24558;BME280;12726;49.148;8.582;2022-12-07T03:27:17;100562.47;;;3.11;100.00
24558;BME280;12726;49.148;8.582;2022-12-07T03:30:07;100556.81;;;3.14;100.00
24558;BME280;12726;49.148;8.582;2022-12-07T03:32:58;100549.66;;;3.14;100.00
24558;BME280;12726;49.148;8.582;2022-12-07T03:35:48;100561.06;;;2.99;100.00
24558;BME280;12726;49.148;8.582;2022-12-07T03:38:40;100566.78;;;3.04;100.00
24558;BME280;12726;49.148;8.582;2022-12-07T03:41:30;100551.63;;;2.96;100.00
24558;BME280;12726;49.148;8.582;2022-12-07T03:44:16;100573.16;;;2.85;100.00
24558;BME280;12726;49.148;8.582;2022-12-07T03:47:05;100569.31;;;2.80;100.00
24558;BME280;12726;49.148;8.582;2022-12-07T03:49:53;100569.31;;;2.80;100.00
24558;BME280;12726;49.148;8.582;2022-12-07T03:52:43;100568.72;;;2.94;100.00
24558;BME280;12726;49.148;8.582;2022-12-07T03:55:33;100565.69;;;2.89;100.00
24558;BME280;12726;49.148;8.582;2022-12-07T03:58:22;100569.19;;;2.89;100.00
24558;BME280;12726;49.148;8.582;2022-12-07T04:01:08;100564.06;;;2.96;100.00
24558;BME280;12726;49.148;8.582;2022-12-07T04:03:53;100560.06;;;2.92;100.00
24558;BME280;12726;49.148;8.582;2022-12-07T04:06:39;100567.56;;;2.96;100.00
24558;BME280;12726;49.148;8.582;2022-12-07T04:09:24;100575.50;;;2.88;100.00
24558;BME280;12726;49.148;8.582;2022-12-07T04:12:11;100570.19;;;2.88;100.00
24558;BME280;12726;49.148;8.582;2022-12-07T04:14:56;100565.56;;;2.90;100.00
24558;BME280;12726;49.148;8.582;2022-12-07T04:17:41;100559.69;;;2.87;100.00
24558;BME280;12726;49.148;8.582;2022-12-07T04:20:26;100558.91;;;2.94;100.00
24558;BME280;12726;49.148;8.582;2022-12-07T04:23:12;100559.59;;;2.96;100.00
24558;BME280;12726;49.148;8.582;2022-12-07T04:25:57;100546.13;;;2.98;100.00
24558;BME280;12726;49.148;8.582;2022-12-07T04:28:43;100547.16;;;3.05;100.00
24558;BME280;12726;49.148;8.582;2022-12-07T04:31:29;100548.81;;;3.06;100.00
24558;BME280;12726;49.148;8.582;2022-12-07T04:34:15;100556.97;;;3.04;100.00
24558;BME280;12726;49.148;8.582;2022-12-07T04:37:00;100545.97;;;2.99;100.00
24558;BME280;12726;49.148;8.582;2022-12-07T04:39:45;100542.69;;;3.05;100.00
24558;BME280;12726;49.148;8.582;2022-12-07T04:42:31;100546.47;;;3.03;100.00
24558;BME280;12726;49.148;8.582;2022-12-07T04:45:17;100552.63;;;3.03;100.00
24558;BME280;12726;49.148;8.582;2022-12-07T04:48:03;100546.47;;;3.03;100.00
24558;BME280;12726;49.148;8.582;2022-12-07T04:50:49;100540.81;;;2.98;100.00
24558;BME280;12726;49.148;8.582;2022-12-07T04:53:34;100545.50;;;3.04;100.00
24558;BME280;12726;49.148;8.582;2022-12-07T04:56:21;100539.19;;;3.05;100.00
24558;BME280;12726;49.148;8.582;2022-12-07T04:59:07;100540.19;;;3.04;100.00
24558;BME280;12726;49.148;8.582;2022-12-07T05:01:54;100548.81;;;3.06;100.00
24558;BME280;12726;49.148;8.582;2022-12-07T05:04:39;100547.78;;;2.99;100.00
24558;BME280;12726;49.148;8.582;2022-12-07T05:07:24;100546.47;;;3.03;100.00
24558;BME280;12726;49.148;8.582;2022-12-07T05:10:10;100554.63;;;3.01;100.00
24558;BME280;12726;49.148;8.582;2022-12-07T05:12:55;100549.81;;;3.05;100.00
24558;BME280;12726;49.148;8.582;2022-12-07T05:15:41;100547.16;;;3.05;100.00
24558;BME280;12726;49.148;8.582;2022-12-07T05:18:29;100551.00;;;3.10;100.00
24558;BME280;12726;49.148;8.582;2022-12-07T05:21:14;100552.63;;;3.03;100.00
24558;BME280;12726;49.148;8.582;2022-12-07T05:23:59;100544.50;;;3.05;100.00
24558;BME280;12726;49.148;8.582;2022-12-07T05:26:45;100556.28;;;3.02;100.00
24558;BME280;12726;49.148;8.582;2022-12-07T05:29:30;100547.31;;;3.03;100.00
24558;BME280;12726;49.148;8.582;2022-12-07T05:32:15;100545.00;;;3.08;100.00
24558;BME280;12726;49.148;8.582;2022-12-07T05:35:02;100550.81;;;3.04;100.00
24558;BME280;12726;49.148;8.582;2022-12-07T05:37:47;100546.47;;;3.03;100.00
24558;BME280;12726;49.148;8.582;2022-12-07T05:40:32;100545.66;;;3.02;100.00
24558;BME280;12726;49.148;8.582;2022-12-07T05:43:17;100542.66;;;2.97;100.00
24558;BME280;12726;49.148;8.582;2022-12-07T05:46:03;100545.31;;;2.97;100.00
24558;BME280;12726;49.148;8.582;2022-12-07T05:48:48;100532.66;;;2.99;100.00
24558;BME280;12726;49.148;8.582;2022-12-07T05:51:35;100543.66;;;3.04;100.00
24558;BME280;12726;49.148;8.582;2022-12-07T05:54:20;100546.34;;;3.04;100.00
24558;BME280;12726;49.148;8.582;2022-12-07T05:57:06;100547.50;;;3.10;100.00
24558;BME280;12726;49.148;8.582;2022-12-07T05:59:51;100536.19;;;3.08;100.00
24558;BME280;12726;49.148;8.582;2022-12-07T06:02:36;100541.66;;;3.06;100.00
24558;BME280;12726;49.148;8.582;2022-12-07T06:05:21;100533.38;;;3.09;100.00
24558;BME280;12726;49.148;8.582;2022-12-07T06:08:08;100531.53;;;3.10;100.00
24558;BME280;12726;49.148;8.582;2022-12-07T06:10:53;100535.50;;;3.06;100.00
24558;BME280;12726;49.148;8.582;2022-12-07T06:13:52;100533.88;;;3.05;100.00
24558;BME280;12726;49.148;8.582;2022-12-07T06:16:37;100536.34;;;2.98;100.00
24558;BME280;12726;49.148;8.582;2022-12-07T06:19:23;100531.84;;;3.07;100.00
24558;BME280;12726;49.148;8.582;2022-12-07T06:22:09;100535.69;;;3.04;100.00
24558;BME280;12726;49.148;8.582;2022-12-07T06:24:56;100539.50;;;3.02;100.00
24558;BME280;12726;49.148;8.582;2022-12-07T06:27:41;100545.50;;;3.04;100.00
24558;BME280;12726;49.148;8.582;2022-12-07T06:30:27;100531.69;;;3.08;100.00
24558;BME280;12726;49.148;8.582;2022-12-07T06:33:12;100541.19;;;3.11;100.00
24558;BME280;12726;49.148;8.582;2022-12-07T06:35:57;100533.38;;;3.09;100.00
24558;BME280;12726;49.148;8.582;2022-12-07T06:38:43;100537.56;;;3.12;100.00
24558;BME280;12726;49.148;8.582;2022-12-07T06:41:30;100536.03;;;3.09;100.00
24558;BME280;12726;49.148;8.582;2022-12-07T06:44:15;100541.66;;;3.06;100.00
24558;BME280;12726;49.148;8.582;2022-12-07T06:47:00;100552.97;;;3.08;100.00
24558;BME280;12726;49.148;8.582;2022-12-07T06:49:45;100547.66;;;3.08;100.00
24558;BME280;12726;49.148;8.582;2022-12-07T06:52:31;100542.34;;;3.08;100.00
24558;BME280;12726;49.148;8.582;2022-12-07T06:55:18;100543.34;;;3.07;100.00
24558;BME280;12726;49.148;8.582;2022-12-07T06:58:07;100543.47;;;3.06;100.00
24558;BME280;12726;49.148;8.582;2022-12-07T07:00:53;100540.50;;;3.09;100.00
24558;BME280;12726;49.148;8.582;2022-12-07T07:03:38;100542.19;;;3.10;100.00
24558;BME280;12726;49.148;8.582;2022-12-07T07:06:23;100538.69;;;3.09;100.00
24558;BME280;12726;49.148;8.582;2022-12-07T07:09:09;100541.34;;;3.09;100.00
24558;BME280;12726;49.148;8.582;2022-12-07T07:11:54;100536.72;;;3.11;100.00
24558;BME280;12726;49.148;8.582;2022-12-07T07:14:41;100548.34;;;3.10;100.00
24558;BME280;12726;49.148;8.582;2022-12-07T07:17:27;100546.53;;;3.11;100.00
24558;BME280;12726;49.148;8.582;2022-12-07T07:20:13;100548.84;;;3.14;100.00
24558;BME280;12726;49.148;8.582;2022-12-07T07:22:58;100551.69;;;3.12;100.00
24558;BME280;12726;49.148;8.582;2022-12-07T07:25:44;100555.00;;;3.14;100.00
24558;BME280;12726;49.148;8.582;2022-12-07T07:28:29;100549.19;;;3.11;100.00
24558;BME280;12726;49.148;8.582;2022-12-07T07:31:16;100551.69;;;3.12;100.00
24558;BME280;12726;49.148;8.582;2022-12-07T07:34:01;100557.00;;;3.12;100.00
24558;BME280;12726;49.148;8.582;2022-12-07T07:36:46;100559.66;;;3.21;100.00
24558;BME280;12726;49.148;8.582;2022-12-07T07:39:32;100557.00;;;3.21;100.00
24558;BME280;12726;49.148;8.582;2022-12-07T07:42:17;100561.88;;;3.25;100.00
24558;BME280;12726;49.148;8.582;2022-12-07T07:45:03;100559.84;;;3.27;100.00
24558;BME280;12726;49.148;8.582;2022-12-07T07:47:50;100562.69;;;3.26;100.00
24558;BME280;12726;49.148;8.582;2022-12-07T07:50:36;100561.88;;;3.25;100.00
24558;BME280;12726;49.148;8.582;2022-12-07T07:53:21;100574.50;;;3.31;100.00
24558;BME280;12726;49.148;8.582;2022-12-07T07:56:07;100570.22;;;3.38;100.00
24558;BME280;12726;49.148;8.582;2022-12-07T07:58:52;100564.38;;;3.35;100.00
24558;BME280;12726;49.148;8.582;2022-12-07T08:01:37;100563.72;;;3.33;100.00
24558;BME280;12726;49.148;8.582;2022-12-07T08:04:24;100574.84;;;3.36;100.00
24558;BME280;12726;49.148;8.582;2022-12-07T08:07:10;100576.03;;;3.42;100.00
24558;BME280;12726;49.148;8.582;2022-12-07T08:09:55;100575.88;;;3.43;100.00
24558;BME280;12726;49.148;8.582;2022-12-07T08:12:43;100580.22;;;3.44;100.00
24558;BME280;12726;49.148;8.582;2022-12-07T08:15:47;100579.56;;;3.50;100.00
24558;BME280;12726;49.148;8.582;2022-12-07T08:18:35;100590.34;;;3.49;99.42
24558;BME280;12726;49.148;8.582;2022-12-07T08:21:22;100588.53;;;3.49;99.22
24558;BME280;12726;49.148;8.582;2022-12-07T08:24:07;100593.03;;;3.57;99.55
24558;BME280;12726;49.148;8.582;2022-12-07T08:26:55;100603.84;;;3.55;99.17
24558;BME280;12726;49.148;8.582;2022-12-07T08:29:41;100601.72;;;3.59;100.00
24558;BME280;12726;49.148;8.582;2022-12-07T08:32:26;100602.41;;;3.69;99.36
24558;BME280;12726;49.148;8.582;2022-12-07T08:35:12;100595.25;;;3.78;98.96
24558;BME280;12726;49.148;8.582;2022-12-07T08:37:59;100592.94;;;3.83;97.72
24558;BME280;12726;49.148;8.582;2022-12-07T08:40:53;100594.28;;;3.95;96.61
24558;BME280;12726;49.148;8.582;2022-12-07T08:43:39;100593.78;;;4.00;97.23
24558;BME280;12726;49.148;8.582;2022-12-07T08:46:28;100596.63;;;4.14;96.59
24558;BME280;12726;49.148;8.582;2022-12-07T08:49:19;100602.28;;;4.27;94.21
24558;BME280;12726;49.148;8.582;2022-12-07T08:52:06;100595.78;;;4.30;94.02
24558;BME280;12726;49.148;8.582;2022-12-07T08:54:52;100595.13;;;4.44;94.26
24558;BME280;12726;49.148;8.582;2022-12-07T08:57:39;100593.13;;;4.46;92.37
24558;BME280;12726;49.148;8.582;2022-12-07T09:00:25;100600.13;;;4.47;92.78
24558;BME280;12726;49.148;8.582;2022-12-07T09:03:10;100599.59;;;4.44;92.94
24558;BME280;12726;49.148;8.582;2022-12-07T09:05:56;100595.78;;;4.30;93.06
24558;BME280;12726;49.148;8.582;2022-12-07T09:08:44;100600.13;;;4.23;93.77
24558;BME280;12726;49.148;8.582;2022-12-07T09:11:32;100598.13;;;4.25;93.81
24558;BME280;12726;49.148;8.582;2022-12-07T09:14:17;100594.94;;;4.29;93.66
24558;BME280;12726;49.148;8.582;2022-12-07T09:17:07;100599.44;;;4.37;93.69
24558;BME280;12726;49.148;8.582;2022-12-07T09:19:52;100600.59;;;4.34;92.44
24558;BME280;12726;49.148;8.582;2022-12-07T09:22:37;100592.28;;;4.21;94.03
24558;BME280;12726;49.148;8.582;2022-12-07T09:25:23;100594.44;;;4.34;93.09
24558;BME280;12726;49.148;8.582;2022-12-07T09:28:11;100608.59;;;4.34;92.71
24558;BME280;12726;49.148;8.582;2022-12-07T09:30:56;100602.44;;;4.42;92.01
24558;BME280;12726;49.148;8.582;2022-12-07T09:33:44;100606.59;;;4.37;91.09
24558;BME280;12726;49.148;8.582;2022-12-07T09:36:30;100601.44;;;4.59;91.10
24558;BME280;12726;49.148;8.582;2022-12-07T09:39:15;100599.22;;;4.71;90.85
24558;BME280;12726;49.148;8.582;2022-12-07T09:42:03;100598.22;;;4.72;90.64
24558;BME280;12726;49.148;8.582;2022-12-07T09:44:50;100598.25;;;4.64;91.73
24558;BME280;12726;49.148;8.582;2022-12-07T09:47:36;100595.78;;;4.54;92.15
24558;BME280;12726;49.148;8.582;2022-12-07T09:50:24;100592.44;;;4.36;93.62
24558;BME280;12726;49.148;8.582;2022-12-07T09:53:14;100595.78;;;4.22;95.50
24558;BME280;12726;49.148;8.582;2022-12-07T09:56:01;100593.47;;;4.11;96.81
24558;BME280;12726;49.148;8.582;2022-12-07T09:58:47;100590.63;;;4.04;98.34
24558;BME280;12726;49.148;8.582;2022-12-07T10:01:34;100598.28;;;3.99;98.47
24558;BME280;12726;49.148;8.582;2022-12-07T10:04:21;100596.28;;;3.93;98.17
24558;BME280;12726;49.148;8.582;2022-12-07T10:07:09;100589.78;;;3.96;98.31
24558;BME280;12726;49.148;8.582;2022-12-07T10:09:55;100591.78;;;3.93;98.20
24558;BME280;12726;49.148;8.582;2022-12-07T10:12:56;100578.63;;;4.00;99.50
24558;BME280;12726;49.148;8.582;2022-12-07T10:15:52;100584.47;;;4.12;99.46
24558;BME280;12726;49.148;8.582;2022-12-07T10:18:43;100579.63;;;4.23;98.35
24558;BME280;12726;49.148;8.582;2022-12-07T10:21:28;100575.97;;;4.24;97.67
24558;BME280;12726;49.148;8.582;2022-12-07T10:24:14;100574.47;;;4.30;97.52
24558;BME280;12726;49.148;8.582;2022-12-07T10:26:59;100573.78;;;4.28;96.44
24558;BME280;12726;49.148;8.582;2022-12-07T10:29:48;100573.63;;;4.29;97.15
24558;BME280;12726;49.148;8.582;2022-12-07T10:32:35;100571.97;;;4.28;97.30
24558;BME280;12726;49.148;8.582;2022-12-07T10:35:25;100566.63;;;4.28;97.05
24558;BME280;12726;49.148;8.582;2022-12-07T10:38:16;100566.63;;;4.28;96.65
24558;BME280;12726;49.148;8.582;2022-12-07T10:41:06;100571.81;;;4.30;95.93
24558;BME280;12726;49.148;8.582;2022-12-07T10:43:53;100565.78;;;4.28;96.67
24558;BME280;12726;49.148;8.582;2022-12-07T10:50:27;100550.81;;;4.35;96.63
24558;BME280;12726;49.148;8.582;2022-12-07T10:53:26;100547.44;;;4.41;95.87
24558;BME280;12726;49.148;8.582;2022-12-07T10:59:34;100546.97;;;4.46;96.64
24558;BME280;12726;49.148;8.582;2022-12-07T11:02:44;100543.44;;;4.61;93.76
24558;BME280;12726;49.148;8.582;2022-12-07T11:05:39;100536.59;;;4.59;93.39
24558;BME280;12726;49.148;8.582;2022-12-07T11:08:38;100535.78;;;4.58;92.87
24558;BME280;12726;49.148;8.582;2022-12-07T11:11:32;100535.63;;;4.44;92.25
24558;BME280;12726;49.148;8.582;2022-12-07T11:14:22;100530.16;;;4.37;91.95
24558;BME280;12726;49.148;8.582;2022-12-07T11:17:15;100516.66;;;4.39;91.95
24558;BME280;12726;49.148;8.582;2022-12-07T11:20:12;100525.63;;;4.46;92.69
24558;BME280;12726;49.148;8.582;2022-12-07T11:23:04;100519.63;;;4.52;93.17
24558;BME280;12726;49.148;8.582;2022-12-07T11:26:01;100514.59;;;4.57;93.43
24558;BME280;12726;49.148;8.582;2022-12-07T11:29:04;100513.59;;;4.58;91.78
24558;BME280;12726;49.148;8.582;2022-12-07T11:31:57;100516.09;;;4.67;93.72
24558;BME280;12726;49.148;8.582;2022-12-07T11:34:55;100509.84;;;4.83;91.16
24558;BME280;12726;49.148;8.582;2022-12-07T11:37:45;100516.84;;;4.84;89.97
24558;BME280;12726;49.148;8.582;2022-12-07T11:40:34;100518.66;;;4.84;89.56
24558;BME280;12726;49.148;8.582;2022-12-07T11:43:24;100512.50;;;4.83;89.28
24558;BME280;12726;49.148;8.582;2022-12-07T11:46:14;100515.53;;;4.80;89.28
24558;BME280;12726;49.148;8.582;2022-12-07T11:49:04;100510.19;;;4.80;89.93
24558;BME280;12726;49.148;8.582;2022-12-07T11:51:56;100502.81;;;4.90;89.49
24558;BME280;12726;49.148;8.582;2022-12-07T11:54:45;100499.28;;;4.98;89.24
24558;BME280;12726;49.148;8.582;2022-12-07T11:57:37;100486.91;;;5.05;89.05
24558;BME280;12726;49.148;8.582;2022-12-07T12:00:27;100487.56;;;5.07;89.90
24558;BME280;12726;49.148;8.582;2022-12-07T12:03:16;100485.81;;;5.22;88.73
24558;BME280;12726;49.148;8.582;2022-12-07T12:06:05;100483.63;;;5.26;86.75
24558;BME280;12726;49.148;8.582;2022-12-07T12:08:54;100473.25;;;5.31;86.97
24558;BME280;12726;49.148;8.582;2022-12-07T12:11:56;100478.81;;;5.21;88.24
24558;BME280;12726;49.148;8.582;2022-12-07T12:14:56;100476.59;;;5.33;88.09
24558;BME280;12726;49.148;8.582;2022-12-07T12:17:53;100476.13;;;5.52;86.23
24558;BME280;12726;49.148;8.582;2022-12-07T12:20:45;100477.19;;;5.66;86.02
24558;BME280;12726;49.148;8.582;2022-12-07T12:23:39;100475.84;;;5.84;84.27
24558;BME280;12726;49.148;8.582;2022-12-07T12:26:27;100469.22;;;5.80;84.85
24558;BME280;12726;49.148;8.582;2022-12-07T12:29:21;100472.94;;;5.71;85.86
24558;BME280;12726;49.148;8.582;2022-12-07T12:32:20;100464.59;;;5.74;85.62
24558;BME280;12726;49.148;8.582;2022-12-07T12:35:28;100463.16;;;5.64;85.27
24558;BME280;12726;49.148;8.582;2022-12-07T12:38:25;100469.69;;;5.38;86.43
24558;BME280;12726;49.148;8.582;2022-12-07T12:41:54;100464.53;;;5.37;87.73
24558;BME280;12726;49.148;8.582;2022-12-07T12:45:20;100459.91;;;5.31;87.49
24558;BME280;12726;49.148;8.582;2022-12-07T12:48:10;100458.25;;;5.30;86.81
24558;BME280;12726;49.148;8.582;2022-12-07T12:51:38;100457.94;;;5.25;88.71
24558;BME280;12726;49.148;8.582;2022-12-07T12:54:25;100455.28;;;5.25;88.95
24558;BME280;12726;49.148;8.582;2022-12-07T12:57:15;100456.94;;;5.26;89.32
24558;BME280;12726;49.148;8.582;2022-12-07T13:00:16;100450.06;;;5.31;88.76
24558;BME280;12726;49.148;8.582;2022-12-07T13:03:02;100451.41;;;5.27;88.92
24558;BME280;12726;49.148;8.582;2022-12-07T13:09:20;100430.78;;;5.21;88.96
24558;BME280;12726;49.148;8.582;2022-12-07T13:12:13;100426.38;;;5.28;88.85
24558;BME280;12726;49.148;8.582;2022-12-07T13:14:59;100427.22;;;5.29;88.65
24558;BME280;12726;49.148;8.582;2022-12-07T13:18:22;100431.72;;;5.28;88.78
24558;BME280;12726;49.148;8.582;2022-12-07T13:24:24;100418.53;;;5.27;89.99
24558;BME280;12726;49.148;8.582;2022-12-07T13:27:10;100424.72;;;5.27;88.68
24558;BME280;12726;49.148;8.582;2022-12-07T13:29:57;100423.59;;;5.22;89.10
24558;BME280;12726;49.148;8.582;2022-12-07T13:32:51;100427.25;;;5.21;88.97
24558;BME280;12726;49.148;8.582;2022-12-07T13:35:37;100417.59;;;5.20;89.29
24558;BME280;12726;49.148;8.582;2022-12-07T13:38:25;100418.13;;;5.15;89.83
24558;BME280;12726;49.148;8.582;2022-12-07T13:41:15;100411.78;;;5.16;90.02
24558;BME280;12726;49.148;8.582;2022-12-07T13:44:03;100408.00;;;5.10;89.68
24558;BME280;12726;49.148;8.582;2022-12-07T13:46:57;100416.66;;;5.12;90.15
24558;BME280;12726;49.148;8.582;2022-12-07T13:49:47;100417.84;;;5.10;89.94
24558;BME280;12726;49.148;8.582;2022-12-07T13:52:33;100419.03;;;5.07;90.14
24558;BME280;12726;49.148;8.582;2022-12-07T13:55:29;100418.69;;;5.10;90.08
24558;BME280;12726;49.148;8.582;2022-12-07T13:58:15;100410.00;;;5.08;90.42
24558;BME280;12726;49.148;8.582;2022-12-07T14:01:01;100409.88;;;5.02;89.70
24558;BME280;12726;49.148;8.582;2022-12-07T14:03:47;100410.94;;;4.93;91.04
24558;BME280;12726;49.148;8.582;2022-12-07T14:06:32;100408.09;;;4.94;91.97
24558;BME280;12726;49.148;8.582;2022-12-07T14:09:19;100412.59;;;4.94;91.32
24558;BME280;12726;49.148;8.582;2022-12-07T14:12:05;100409.44;;;4.90;91.02
24558;BME280;12726;49.148;8.582;2022-12-07T14:14:52;100409.97;;;4.86;91.84
24558;BME280;12726;49.148;8.582;2022-12-07T14:17:49;100418.34;;;4.83;91.38
24558;BME280;12726;49.148;8.582;2022-12-07T14:20:37;100417.50;;;4.82;91.54
24558;BME280;12726;49.148;8.582;2022-12-07T14:23:24;100409.69;;;4.81;91.60
24558;BME280;12726;49.148;8.582;2022-12-07T14:26:12;100416.56;;;4.75;91.71
24558;BME280;12726;49.148;8.582;2022-12-07T14:29:19;100405.88;;;4.75;92.04
24558;BME280;12726;49.148;8.582;2022-12-07T14:32:19;100417.75;;;4.64;91.84
24558;BME280;12726;49.148;8.582;2022-12-07T14:35:10;100411.16;;;4.52;92.69
24558;BME280;12726;49.148;8.582;2022-12-07T14:37:55;100415.63;;;4.60;92.21
24558;BME280;12726;49.148;8.582;2022-12-07T14:40:41;100409.47;;;4.59;92.65
24558;BME280;12726;49.148;8.582;2022-12-07T14:43:29;100406.97;;;4.58;92.48
24558;BME280;12726;49.148;8.582;2022-12-07T14:46:15;100415.16;;;4.48;93.03
24558;BME280;12726;49.148;8.582;2022-12-07T14:49:01;100413.44;;;4.55;93.24
24558;BME280;12726;49.148;8.582;2022-12-07T14:51:47;100409.47;;;4.59;93.52
24558;BME280;12726;49.148;8.582;2022-12-07T14:54:33;100412.28;;;4.58;93.00
24558;BME280;12726;49.148;8.582;2022-12-07T14:57:18;100406.13;;;4.57;93.08
24558;BME280;12726;49.148;8.582;2022-12-07T15:00:05;100403.81;;;4.54;93.27
24558;BME280;12726;49.148;8.582;2022-12-07T15:02:51;100409.81;;;4.48;93.41
24558;BME280;12726;49.148;8.582;2022-12-07T15:05:37;100397.53;;;4.47;93.01